Kenneth Carl — WDF8246 — position and weather

sailwx.info

Track history (hours):
 
Tides and Currents Weather Stations Pressure Air Temp Water Temp Dewpoint Dewpoint Depression Visibility Wind Speed Wind Dir Waves Ship Positions

Kenneth Carl

Owner: So. Cal. Ship Services, Inc., San Pedro, CA. More information available from US FCC via Universal Licensing System and Coast Guard Vessel Documentation Center.

Last reported at 2017-Feb-23 06:10 UTC. Time now 2017-Feb-24 10:34 UTC.
Position N 33°44' W 118°16'.

Length 31 m; draft 3 m.

Type: Ship. MMSI: 367492920.

Date/timePositionNaut miles runAvg speedWind from/ knotsBaromVisibWave heightAir tempDewpointWater temp
2017-Feb-23 06:10N 33°44' W 118°16'12 1.3
2017-Feb-22 21:30N 33°35' W 118°08'1 0.9
2017-Feb-22 20:04N 33°34' W 118°07'0 0.0
2017-Feb-22 19:25N 33°34' W 118°07'1 1.3
2017-Feb-22 18:28N 33°35' W 118°08'12 1.7
2017-Feb-22 11:28N 33°44' W 118°16'0 0.0
2017-Feb-22 10:33N 33°44' W 118°16'0 0.0
2017-Feb-22 09:33N 33°44' W 118°16'0 0.0
2017-Feb-22 08:03N 33°44' W 118°16'0 0.0
2017-Feb-22 06:27N 33°44' W 118°16'0 0.0
2017-Feb-22 05:33N 33°44' W 118°16'0 0.0
2017-Feb-22 04:20N 33°44' W 118°16'0 0.0
2017-Feb-22 01:25N 33°44' W 118°16'0 0.0
2017-Feb-22 00:33N 33°44' W 118°16'0 0.0
2017-Feb-21 23:33N 33°44' W 118°16'0 0.0
2017-Feb-21 22:33N 33°44' W 118°16'0 0.0
2017-Feb-21 21:27N 33°44' W 118°16'0 0.0
2017-Feb-21 20:32N 33°44' W 118°16'0 0.0
2017-Feb-21 19:32N 33°44' W 118°16'0 0.0
2017-Feb-21 17:34N 33°44' W 118°16'0 0.0
2017-Feb-21 16:10N 33°44' W 118°16'12 0.7
2017-Feb-20 22:31N 33°35' W 118°08'0 0.0
2017-Feb-20 21:28N 33°35' W 118°08'0 0.0
2017-Feb-20 19:21N 33°35' W 118°08'0 0.0
2017-Feb-20 18:29N 33°35' W 118°08'  
2017-Feb-17 05:17N 33°44' W 118°16'0 0.0
2017-Feb-17 04:32N 33°44' W 118°16'0 0.0
2017-Feb-17 03:20N 33°44' W 118°16'0 0.0
2017-Feb-17 02:32N 33°44' W 118°16'0 0.0
2017-Feb-17 01:32N 33°44' W 118°16'0 0.4
2017-Feb-17 00:33N 33°44' W 118°16'0 0.0
2017-Feb-16 23:34N 33°44' W 118°16'7 7.0
2017-Feb-16 22:30N 33°38' W 118°10'4 4.2
2017-Feb-16 21:34N 33°35' W 118°08'0 0.0
2017-Feb-16 20:33N 33°35' W 118°08'0 0.0
2017-Feb-16 19:33N 33°35' W 118°08'0 0.0
2017-Feb-16 18:34N 33°35' W 118°08'0 0.0
2017-Feb-16 17:33N 33°35' W 118°08'4 4.4
2017-Feb-16 16:33N 33°38' W 118°11'7 7.0
2017-Feb-16 15:31N 33°44' W 118°16'0 0.0
2017-Feb-16 14:28N 33°44' W 118°16'0 0.0
2017-Feb-16 13:25N 33°44' W 118°16'0 0.0
2017-Feb-16 12:30N 33°44' W 118°16'0 0.0
2017-Feb-16 11:32N 33°44' W 118°16'0 0.0
2017-Feb-16 10:33N 33°44' W 118°16'0 0.0
2017-Feb-16 09:33N 33°44' W 118°16'0 0.0
2017-Feb-16 08:33N 33°44' W 118°16'0 0.0
2017-Feb-16 07:33N 33°44' W 118°16'0 0.0
2017-Feb-16 06:32N 33°44' W 118°16'0 0.0
2017-Feb-16 05:32N 33°44' W 118°16'0 0.0
2017-Feb-16 04:33N 33°44' W 118°16'0 0.0
2017-Feb-16 03:33N 33°44' W 118°16'0 0.0
2017-Feb-16 02:28N 33°44' W 118°16'0 0.0
2017-Feb-16 01:34N 33°44' W 118°16'0 0.0
2017-Feb-16 00:34N 33°44' W 118°16'0 0.4
2017-Feb-15 23:33N 33°44' W 118°16'0 0.0
2017-Feb-15 22:33N 33°44' W 118°16'5 4.6
2017-Feb-15 21:33N 33°41' W 118°12'7 6.9
2017-Feb-15 20:33N 33°35' W 118°08'1 1.3
2017-Feb-15 19:32N 33°34' W 118°07'0 0.0
2017-Feb-15 18:27N 33°34' W 118°07'0 0.0
2017-Feb-15 17:33N 33°34' W 118°07'0 0.0
2017-Feb-15 16:33N 33°34' W 118°07'7 7.3
2017-Feb-15 15:33N 33°39' W 118°14'6 4.9
2017-Feb-15 14:22N 33°44' W 118°16'0 0.0
2017-Feb-15 13:31N 33°44' W 118°16'0 0.0
2017-Feb-15 12:31N 33°44' W 118°16'0 0.0
2017-Feb-15 11:31N 33°44' W 118°16'0 0.0
2017-Feb-15 10:31N 33°44' W 118°16'0 0.0
2017-Feb-15 09:31N 33°44' W 118°16'0 0.0
2017-Feb-15 08:31N 33°44' W 118°16'0 0.0
2017-Feb-15 07:31N 33°44' W 118°16'0 0.0
2017-Feb-15 06:19N 33°44' W 118°16'0 0.0
2017-Feb-15 05:18N 33°44' W 118°16'0 0.0
2017-Feb-15 03:27N 33°44' W 118°16'0 0.0
2017-Feb-15 02:27N 33°44' W 118°16'0 0.0
2017-Feb-15 01:33N 33°44' W 118°16'0 0.0
2017-Feb-15 00:24N 33°44' W 118°16'0 0.0
2017-Feb-14 23:33N 33°44' W 118°16'0 0.0
2017-Feb-14 19:27N 33°44' W 118°16'0 0.0
2017-Feb-14 18:27N 33°44' W 118°16'0 0.0
2017-Feb-14 17:30N 33°44' W 118°16'0 0.0
2017-Feb-14 16:33N 33°44' W 118°16'0 0.0
2017-Feb-14 15:33N 33°44' W 118°16'0 0.0
2017-Feb-14 14:33N 33°44' W 118°16'0 0.0
2017-Feb-14 13:33N 33°44' W 118°16'0 0.0
2017-Feb-14 12:33N 33°44' W 118°16'0 0.0
2017-Feb-14 11:33N 33°44' W 118°16'0 0.0
2017-Feb-14 08:21N 33°44' W 118°16'0 0.0
2017-Feb-14 07:21N 33°44' W 118°16'0 0.0
2017-Feb-14 06:33N 33°44' W 118°16'0 0.0
2017-Feb-14 05:27N 33°44' W 118°16'0 0.0
2017-Feb-14 03:15N 33°44' W 118°16'0 0.0
2017-Feb-14 01:21N 33°44' W 118°16'0 0.0
2017-Feb-14 00:33N 33°44' W 118°16'6 5.8
2017-Feb-13 23:33N 33°39' W 118°12'7 7.0
2017-Feb-13 22:33N 33°34' W 118°07'1 1.2
2017-Feb-13 21:33N 33°35' W 118°08'0 0.0
2017-Feb-13 20:33N 33°35' W 118°08'0 0.0
2017-Feb-13 19:33N 33°35' W 118°08'0 0.0
2017-Feb-13 18:32N 33°35' W 118°08'4 3.8
2017-Feb-13 17:33N 33°38' W 118°11'8 7.4
2017-Feb-13 16:29N 33°44' W 118°16'0 0.0
2017-Feb-13 15:32N 33°44' W 118°16'0 0.4
2017-Feb-13 14:31N 33°44' W 118°16'0 0.0
2017-Feb-13 13:31N 33°44' W 118°16'0 0.4
2017-Feb-13 12:31N 33°44' W 118°16'0 0.0
2017-Feb-13 11:16N 33°44' W 118°16'  
Track history (hours):
 
Tides and Currents Weather Stations Pressure Air Temp Water Temp Dewpoint Dewpoint Depression Visibility Wind Speed Wind Dir Waves Ship Positions

Kenneth Carl

Owner: So. Cal. Ship Services, Inc., San Pedro, CA. More information available from US FCC via Universal Licensing System and Coast Guard Vessel Documentation Center.

Last reported at 2017-Feb-23 06:10 UTC. Time now 2017-Feb-24 10:34 UTC.
Position N 33°44' W 118°16'.

Length 31 m; draft 3 m.

Type: Ship. MMSI: 367492920.

Date/timePositionNaut miles runAvg speedWind from/ knotsBaromVisibWave heightAir tempDewpointWater temp
2017-Feb-23 06:10N 33°44' W 118°16'12 1.3
2017-Feb-22 21:30N 33°35' W 118°08'1 0.9
2017-Feb-22 20:04N 33°34' W 118°07'0 0.0
2017-Feb-22 19:25N 33°34' W 118°07'1 1.3
2017-Feb-22 18:28N 33°35' W 118°08'12 1.7
2017-Feb-22 11:28N 33°44' W 118°16'0 0.0
2017-Feb-22 10:33N 33°44' W 118°16'0 0.0
2017-Feb-22 09:33N 33°44' W 118°16'0 0.0
2017-Feb-22 08:03N 33°44' W 118°16'0 0.0
2017-Feb-22 06:27N 33°44' W 118°16'0 0.0
2017-Feb-22 05:33N 33°44' W 118°16'0 0.0
2017-Feb-22 04:20N 33°44' W 118°16'0 0.0
2017-Feb-22 01:25N 33°44' W 118°16'0 0.0
2017-Feb-22 00:33N 33°44' W 118°16'0 0.0
2017-Feb-21 23:33N 33°44' W 118°16'0 0.0
2017-Feb-21 22:33N 33°44' W 118°16'0 0.0
2017-Feb-21 21:27N 33°44' W 118°16'0 0.0
2017-Feb-21 20:32N 33°44' W 118°16'0 0.0
2017-Feb-21 19:32N 33°44' W 118°16'0 0.0
2017-Feb-21 17:34N 33°44' W 118°16'0 0.0
2017-Feb-21 16:10N 33°44' W 118°16'12 0.7
2017-Feb-20 22:31N 33°35' W 118°08'0 0.0
2017-Feb-20 21:28N 33°35' W 118°08'0 0.0
2017-Feb-20 19:21N 33°35' W 118°08'0 0.0
2017-Feb-20 18:29N 33°35' W 118°08'  
2017-Feb-17 05:17N 33°44' W 118°16'0 0.0
2017-Feb-17 04:32N 33°44' W 118°16'0 0.0
2017-Feb-17 03:20N 33°44' W 118°16'0 0.0
2017-Feb-17 02:32N 33°44' W 118°16'0 0.0
2017-Feb-17 01:32N 33°44' W 118°16'0 0.4
2017-Feb-17 00:33N 33°44' W 118°16'0 0.0
2017-Feb-16 23:34N 33°44' W 118°16'7 7.0
2017-Feb-16 22:30N 33°38' W 118°10'4 4.2
2017-Feb-16 21:34N 33°35' W 118°08'0 0.0
2017-Feb-16 20:33N 33°35' W 118°08'0 0.0
2017-Feb-16 19:33N 33°35' W 118°08'0 0.0
2017-Feb-16 18:34N 33°35' W 118°08'0 0.0
2017-Feb-16 17:33N 33°35' W 118°08'4 4.4
2017-Feb-16 16:33N 33°38' W 118°11'7 7.0
2017-Feb-16 15:31N 33°44' W 118°16'0 0.0
2017-Feb-16 14:28N 33°44' W 118°16'0 0.0
2017-Feb-16 13:25N 33°44' W 118°16'0 0.0
2017-Feb-16 12:30N 33°44' W 118°16'0 0.0
2017-Feb-16 11:32N 33°44' W 118°16'0 0.0
2017-Feb-16 10:33N 33°44' W 118°16'0 0.0
2017-Feb-16 09:33N 33°44' W 118°16'0 0.0
2017-Feb-16 08:33N 33°44' W 118°16'0 0.0
2017-Feb-16 07:33N 33°44' W 118°16'0 0.0
2017-Feb-16 06:32N 33°44' W 118°16'0 0.0
2017-Feb-16 05:32N 33°44' W 118°16'0 0.0
2017-Feb-16 04:33N 33°44' W 118°16'0 0.0
2017-Feb-16 03:33N 33°44' W 118°16'0 0.0
2017-Feb-16 02:28N 33°44' W 118°16'0 0.0
2017-Feb-16 01:34N 33°44' W 118°16'0 0.0
2017-Feb-16 00:34N 33°44' W 118°16'0 0.4
2017-Feb-15 23:33N 33°44' W 118°16'0 0.0
2017-Feb-15 22:33N 33°44' W 118°16'5 4.6
2017-Feb-15 21:33N 33°41' W 118°12'7 6.9
2017-Feb-15 20:33N 33°35' W 118°08'1 1.3
2017-Feb-15 19:32N 33°34' W 118°07'0 0.0
2017-Feb-15 18:27N 33°34' W 118°07'0 0.0
2017-Feb-15 17:33N 33°34' W 118°07'0 0.0
2017-Feb-15 16:33N 33°34' W 118°07'7 7.3
2017-Feb-15 15:33N 33°39' W 118°14'6 4.9
2017-Feb-15 14:22N 33°44' W 118°16'0 0.0
2017-Feb-15 13:31N 33°44' W 118°16'0 0.0
2017-Feb-15 12:31N 33°44' W 118°16'0 0.0
2017-Feb-15 11:31N 33°44' W 118°16'0 0.0
2017-Feb-15 10:31N 33°44' W 118°16'0 0.0
2017-Feb-15 09:31N 33°44' W 118°16'0 0.0
2017-Feb-15 08:31N 33°44' W 118°16'0 0.0
2017-Feb-15 07:31N 33°44' W 118°16'0 0.0
2017-Feb-15 06:19N 33°44' W 118°16'0 0.0
2017-Feb-15 05:18N 33°44' W 118°16'0 0.0
2017-Feb-15 03:27N 33°44' W 118°16'0 0.0
2017-Feb-15 02:27N 33°44' W 118°16'0 0.0
2017-Feb-15 01:33N 33°44' W 118°16'0 0.0
2017-Feb-15 00:24N 33°44' W 118°16'0 0.0
2017-Feb-14 23:33N 33°44' W 118°16'0 0.0
2017-Feb-14 19:27N 33°44' W 118°16'0 0.0
2017-Feb-14 18:27N 33°44' W 118°16'0 0.0
2017-Feb-14 17:30N 33°44' W 118°16'0 0.0
2017-Feb-14 16:33N 33°44' W 118°16'0 0.0
2017-Feb-14 15:33N 33°44' W 118°16'0 0.0
2017-Feb-14 14:33N 33°44' W 118°16'0 0.0
2017-Feb-14 13:33N 33°44' W 118°16'0 0.0
2017-Feb-14 12:33N 33°44' W 118°16'0 0.0
2017-Feb-14 11:33N 33°44' W 118°16'0 0.0
2017-Feb-14 08:21N 33°44' W 118°16'0 0.0
2017-Feb-14 07:21N 33°44' W 118°16'0 0.0
2017-Feb-14 06:33N 33°44' W 118°16'0 0.0
2017-Feb-14 05:27N 33°44' W 118°16'0 0.0
2017-Feb-14 03:15N 33°44' W 118°16'0 0.0
2017-Feb-14 01:21N 33°44' W 118°16'0 0.0
2017-Feb-14 00:33N 33°44' W 118°16'6 5.8
2017-Feb-13 23:33N 33°39' W 118°12'7 7.0
2017-Feb-13 22:33N 33°34' W 118°07'1 1.2
2017-Feb-13 21:33N 33°35' W 118°08'0 0.0
2017-Feb-13 20:33N 33°35' W 118°08'0 0.0
2017-Feb-13 19:33N 33°35' W 118°08'0 0.0
2017-Feb-13 18:32N 33°35' W 118°08'4 3.8
2017-Feb-13 17:33N 33°38' W 118°11'8 7.4
2017-Feb-13 16:29N 33°44' W 118°16'0 0.0
2017-Feb-13 15:32N 33°44' W 118°16'0 0.4
2017-Feb-13 14:31N 33°44' W 118°16'0 0.0
2017-Feb-13 13:31N 33°44' W 118°16'0 0.4
2017-Feb-13 12:31N 33°44' W 118°16'0 0.0
2017-Feb-13 11:16N 33°44' W 118°16'  

Dump ship's entire track history